createdAt,value
2023-02-04T00:00:19.882Z,3.57
2023-02-04T00:02:46.718Z,3.03
2023-02-04T00:05:13.742Z,3.40
2023-02-04T00:07:41.522Z,4.13
2023-02-04T00:10:09.791Z,3.73
2023-02-04T00:12:37.048Z,2.70
2023-02-04T00:15:04.463Z,2.80
2023-02-04T00:17:31.465Z,2.77
2023-02-04T00:19:58.200Z,3.73
2023-02-04T00:22:26.496Z,3.63
2023-02-04T00:24:53.196Z,3.00
2023-02-04T00:27:19.939Z,3.60
2023-02-04T00:29:46.634Z,3.47
2023-02-04T00:32:13.495Z,3.10
2023-02-04T00:34:41.030Z,3.30
2023-02-04T00:37:07.817Z,3.07
2023-02-04T00:39:34.526Z,3.40
2023-02-04T00:42:01.448Z,3.67
2023-02-04T00:44:28.245Z,2.73
2023-02-04T00:46:55.228Z,3.50
2023-02-04T00:49:21.914Z,3.43
2023-02-04T00:51:49.066Z,3.43
2023-02-04T00:54:15.942Z,3.07
2023-02-04T00:56:43.958Z,3.67
2023-02-04T00:59:10.899Z,2.77
2023-02-04T01:01:37.774Z,3.93
2023-02-04T01:04:04.894Z,3.13
2023-02-04T01:06:32.182Z,2.63
2023-02-04T01:08:58.972Z,3.17
2023-02-04T01:11:26.143Z,4.27
2023-02-04T01:13:52.888Z,3.60
2023-02-04T01:16:19.673Z,3.40
2023-02-04T01:18:46.568Z,2.83
2023-02-04T01:21:13.371Z,3.20
2023-02-04T01:23:40.184Z,3.37
2023-02-04T01:26:07.357Z,3.37
2023-02-04T01:28:34.131Z,2.97
2023-02-04T01:31:01.085Z,3.63
2023-02-04T01:33:28.012Z,3.27
2023-02-04T01:35:54.798Z,3.47
2023-02-04T01:38:21.519Z,3.03
2023-02-04T01:40:48.397Z,3.93
2023-02-04T01:43:17.715Z,2.97
2023-02-04T01:45:46.364Z,2.80
2023-02-04T01:48:20.061Z,2.67
2023-02-04T01:50:50.491Z,2.93
2023-02-04T01:53:26.176Z,3.20
2023-02-04T01:55:53.050Z,3.27
2023-02-04T01:58:20.034Z,2.83
2023-02-04T02:00:46.958Z,3.30
2023-02-04T02:03:13.970Z,3.17
2023-02-04T02:05:48.280Z,3.23
2023-02-04T02:08:16.827Z,3.10
2023-02-04T02:10:47.812Z,2.30
2023-02-04T02:13:19.285Z,3.03
2023-02-04T02:15:47.838Z,3.47
2023-02-04T02:18:15.523Z,3.17
2023-02-04T02:20:44.182Z,3.43
2023-02-04T02:23:35.586Z,3.10
2023-02-04T02:26:02.381Z,3.10
2023-02-04T02:28:29.144Z,2.40
2023-02-04T02:30:55.953Z,3.50
2023-02-04T02:33:22.903Z,2.37
2023-02-04T02:35:49.840Z,2.87
2023-02-04T02:38:18.743Z,2.63
2023-02-04T02:40:46.784Z,2.47
2023-02-04T02:43:21.297Z,2.40
2023-02-04T02:45:49.271Z,2.90
2023-02-04T02:48:17.084Z,3.03
2023-02-04T02:50:45.221Z,2.40
2023-02-04T02:53:18.694Z,2.87
2023-02-04T02:55:46.296Z,2.83
2023-02-04T02:58:28.318Z,2.73
2023-02-04T03:00:56.238Z,2.80
2023-02-04T03:03:31.256Z,2.90
2023-02-04T03:06:11.197Z,3.67
2023-02-04T03:08:39.138Z,2.77
2023-02-04T03:11:06.123Z,3.07
2023-02-04T03:13:34.000Z,2.80
2023-02-04T03:16:01.277Z,2.43
2023-02-04T03:18:28.142Z,2.70
2023-02-04T03:20:55.190Z,2.40
2023-02-04T03:23:22.019Z,2.90
2023-02-04T03:25:48.810Z,3.17
2023-02-04T03:28:15.594Z,3.33
2023-02-04T03:30:42.378Z,3.80
2023-02-04T03:33:09.258Z,2.67
2023-02-04T03:35:35.953Z,3.07
2023-02-04T03:38:02.678Z,3.40
2023-02-04T03:40:30.111Z,2.53
2023-02-04T03:42:57.058Z,2.97
2023-02-04T03:45:23.801Z,3.13
2023-02-04T03:47:50.523Z,2.20
2023-02-04T03:50:17.310Z,3.23
2023-02-04T03:52:45.048Z,2.37
2023-02-04T03:55:11.864Z,2.80
2023-02-04T03:57:38.574Z,3.27
2023-02-04T04:00:05.767Z,3.40
2023-02-04T04:02:32.554Z,2.60
2023-02-04T04:04:59.285Z,2.60
2023-02-04T04:07:26.001Z,2.43
2023-02-04T04:09:52.715Z,2.53
2023-02-04T04:12:19.450Z,2.40
2023-02-04T04:14:46.164Z,3.33
2023-02-04T04:17:12.927Z,2.63
2023-02-04T04:19:39.628Z,2.47
2023-02-04T04:22:06.361Z,2.90
2023-02-04T04:24:33.532Z,2.40
2023-02-04T04:27:00.243Z,3.30
2023-02-04T04:29:26.969Z,2.70
2023-02-04T04:31:53.717Z,2.97
2023-02-04T04:34:20.555Z,2.40
2023-02-04T04:36:47.270Z,2.87
2023-02-04T04:39:14.093Z,2.63
2023-02-04T04:41:40.802Z,2.80
2023-02-04T04:44:07.679Z,2.43
2023-02-04T04:46:34.477Z,3.17
2023-02-04T04:49:01.282Z,2.60
2023-02-04T04:51:31.720Z,2.53
2023-02-04T04:53:59.768Z,3.07
2023-02-04T04:56:26.710Z,3.40
2023-02-04T04:58:53.561Z,3.10
2023-02-04T05:01:22.480Z,3.03
2023-02-04T05:03:49.255Z,3.07
2023-02-04T05:06:16.311Z,2.80
2023-02-04T05:08:43.085Z,2.43
2023-02-04T05:11:09.924Z,2.80
2023-02-04T05:13:36.659Z,3.00
2023-02-04T05:16:03.509Z,3.53
2023-02-04T05:18:30.236Z,2.80
2023-02-04T05:20:56.924Z,2.93
2023-02-04T05:23:23.665Z,2.67
2023-02-04T05:25:50.379Z,3.17
2023-02-04T05:28:17.234Z,2.57
2023-02-04T05:30:44.059Z,3.00
2023-02-04T05:33:10.784Z,2.70
2023-02-04T05:35:37.503Z,2.90
2023-02-04T05:38:04.390Z,2.43
2023-02-04T05:40:31.549Z,2.70
2023-02-04T05:42:58.564Z,2.60
2023-02-04T05:45:25.297Z,2.83
2023-02-04T05:47:52.884Z,2.90
2023-02-04T05:50:19.687Z,2.13
2023-02-04T05:52:46.526Z,3.07
2023-02-04T05:55:13.303Z,2.93
2023-02-04T05:57:40.005Z,3.17
2023-02-04T06:00:08.452Z,2.90
2023-02-04T06:02:35.187Z,3.27
2023-02-04T06:05:01.908Z,1.93
2023-02-04T06:07:28.612Z,2.70
2023-02-04T06:09:55.298Z,2.80
2023-02-04T06:12:22.061Z,3.07
2023-02-04T06:14:48.765Z,2.73
2023-02-04T06:17:15.474Z,2.37
2023-02-04T06:19:42.187Z,3.03
2023-02-04T06:22:08.955Z,2.77
2023-02-04T06:24:36.002Z,1.93
2023-02-04T06:27:02.710Z,1.80
2023-02-04T06:29:29.444Z,2.00
2023-02-04T06:31:56.296Z,1.70
2023-02-04T06:34:23.119Z,1.80
2023-02-04T06:36:49.842Z,1.40
2023-02-04T06:39:16.546Z,1.53
2023-02-04T06:41:43.287Z,1.60
2023-02-04T06:44:09.995Z,1.50
2023-02-04T06:46:36.772Z,1.53
2023-02-04T06:49:03.514Z,1.30
2023-02-04T06:51:30.363Z,1.50
2023-02-04T06:53:57.163Z,1.50
2023-02-04T06:56:23.929Z,1.60
2023-02-04T06:58:50.640Z,1.50
2023-02-04T07:01:17.403Z,1.50
2023-02-04T07:03:44.111Z,1.40
2023-02-04T07:06:10.837Z,1.40
2023-02-04T07:08:37.642Z,1.60
2023-02-04T07:11:04.338Z,1.60
2023-02-04T07:13:31.087Z,1.50
2023-02-04T07:15:57.902Z,1.63
2023-02-04T07:18:24.653Z,1.30
2023-02-04T07:20:51.450Z,1.50
2023-02-04T07:23:18.144Z,1.47
2023-02-04T07:25:44.965Z,1.50
2023-02-04T07:28:11.738Z,1.60
2023-02-04T07:30:38.620Z,1.53
2023-02-04T07:33:05.435Z,1.60
2023-02-04T07:35:32.175Z,1.70
2023-02-04T07:37:58.891Z,1.47
2023-02-04T07:40:25.644Z,1.63
2023-02-04T07:42:52.363Z,1.33
2023-02-04T07:45:19.078Z,1.60
2023-02-04T07:47:45.884Z,1.80
2023-02-04T07:50:12.942Z,1.60
2023-02-04T07:52:39.790Z,2.23
2023-02-04T07:55:07.430Z,2.17
2023-02-04T07:57:34.566Z,1.90
2023-02-04T08:00:01.378Z,2.20
2023-02-04T08:02:28.134Z,2.17
2023-02-04T08:04:54.908Z,1.70
2023-02-04T08:07:21.609Z,2.20
2023-02-04T08:09:48.334Z,2.20
2023-02-04T08:12:15.070Z,2.10
2023-02-04T08:14:41.776Z,2.10
2023-02-04T08:17:08.514Z,2.30
2023-02-04T08:19:35.231Z,1.80
2023-02-04T08:22:04.720Z,1.53
2023-02-04T08:24:31.419Z,1.63
2023-02-04T08:27:01.051Z,1.67
2023-02-04T08:29:27.788Z,1.80
2023-02-04T08:31:54.698Z,1.70
2023-02-04T08:34:21.527Z,1.50
2023-02-04T08:36:48.315Z,1.50
2023-02-04T08:39:15.029Z,1.60
2023-02-04T08:41:41.831Z,1.77
2023-02-04T08:44:08.580Z,1.40
2023-02-04T08:46:35.484Z,1.50
2023-02-04T08:49:02.312Z,1.67
2023-02-04T08:51:29.719Z,3.37
2023-02-04T08:53:56.412Z,9.47
2023-02-04T08:56:23.671Z,5.47
2023-02-04T08:58:52.764Z,5.07
2023-02-04T09:01:20.789Z,4.53
2023-02-04T09:03:47.843Z,3.07
2023-02-04T09:06:14.806Z,1.77
2023-02-04T09:08:42.070Z,1.77
2023-02-04T09:11:11.167Z,4.70
2023-02-04T09:13:39.248Z,4.33
2023-02-04T09:16:06.811Z,4.60
2023-02-04T09:18:33.700Z,6.53
2023-02-04T09:21:01.128Z,4.60
2023-02-04T09:23:28.008Z,1.60
2023-02-04T09:25:54.707Z,1.60
2023-02-04T09:28:21.533Z,1.70
2023-02-04T09:30:48.534Z,1.50
2023-02-04T09:33:16.876Z,1.80
2023-02-04T09:35:44.546Z,1.50
2023-02-04T09:38:11.320Z,1.40
2023-02-04T09:40:46.683Z,1.70
2023-02-04T09:43:22.168Z,1.50
2023-02-04T09:45:49.528Z,1.80
2023-02-04T09:48:17.184Z,1.40
2023-02-04T09:50:44.774Z,1.30
2023-02-04T09:53:19.280Z,1.40
2023-02-04T09:55:48.819Z,1.50
2023-02-04T09:58:22.148Z,1.33
2023-02-04T10:01:06.301Z,1.63
2023-02-04T10:03:35.291Z,1.60
2023-02-04T10:06:02.013Z,1.50
2023-02-04T10:08:33.178Z,1.50
2023-02-04T10:11:01.068Z,1.50
2023-02-04T10:13:36.478Z,1.57
2023-02-04T10:16:16.672Z,1.57
2023-02-04T10:18:44.834Z,1.50
2023-02-04T10:21:17.698Z,1.40
2023-02-04T10:23:53.676Z,1.43
2023-02-04T10:26:22.640Z,1.80
2023-02-04T10:28:49.710Z,2.07
2023-02-04T10:31:35.964Z,1.70
2023-02-04T10:34:11.799Z,1.50
2023-02-04T10:36:41.278Z,1.30
2023-02-04T10:39:18.080Z,1.30
2023-02-04T10:41:57.368Z,1.30
2023-02-04T10:44:40.278Z,1.30
2023-02-04T10:47:20.870Z,1.50
2023-02-04T10:49:58.735Z,1.40
2023-02-04T10:52:36.135Z,1.30
2023-02-04T10:55:06.389Z,1.30
2023-02-04T10:57:39.516Z,1.33
2023-02-04T11:00:20.187Z,1.47
2023-02-04T11:03:10.462Z,1.30
2023-02-04T11:05:38.391Z,1.47
2023-02-04T11:08:23.780Z,1.40
2023-02-04T11:10:56.763Z,1.50
2023-02-04T11:13:38.724Z,1.33
2023-02-04T11:16:13.264Z,1.40
2023-02-04T11:18:58.073Z,1.40
2023-02-04T11:21:33.425Z,1.30
2023-02-04T11:24:13.755Z,1.40
2023-02-04T11:27:07.189Z,1.50
2023-02-04T11:29:42.718Z,1.40
2023-02-04T11:32:33.520Z,1.43
2023-02-04T11:35:28.722Z,1.60
2023-02-04T11:37:56.856Z,1.50
2023-02-04T11:40:38.309Z,1.37
2023-02-04T11:43:16.293Z,1.43
2023-02-04T11:45:43.999Z,1.40
2023-02-04T11:48:19.411Z,1.37
2023-02-04T11:51:03.694Z,1.40
2023-02-04T11:53:34.775Z,1.40
2023-02-04T11:56:01.797Z,1.40
2023-02-04T11:58:31.359Z,1.30
2023-02-04T12:00:59.193Z,1.40
2023-02-04T12:03:36.410Z,1.40
2023-02-04T12:06:03.791Z,1.50
2023-02-04T12:08:37.133Z,1.50
2023-02-04T12:11:12.298Z,1.50
2023-02-04T12:13:54.303Z,1.50
2023-02-04T12:16:21.189Z,1.50
2023-02-04T12:18:48.820Z,1.40
2023-02-04T12:21:16.282Z,1.30
2023-02-04T12:23:43.139Z,1.30
2023-02-04T12:26:10.721Z,1.50
2023-02-04T12:28:37.614Z,1.40
2023-02-04T12:31:04.714Z,1.30
2023-02-04T12:33:31.476Z,1.37
2023-02-04T12:35:58.184Z,1.30
2023-02-04T12:38:24.953Z,1.30
2023-02-04T12:40:51.671Z,1.40
2023-02-04T12:43:18.414Z,1.40
2023-02-04T12:45:46.334Z,1.37
2023-02-04T12:48:13.926Z,1.43
2023-02-04T12:50:41.278Z,1.50
2023-02-04T12:53:08.059Z,1.40
2023-02-04T12:55:35.079Z,1.50
2023-02-04T12:58:01.971Z,1.60
2023-02-04T13:00:28.782Z,1.60
2023-02-04T13:02:55.811Z,1.30
2023-02-04T13:05:22.617Z,1.63
2023-02-04T13:07:49.374Z,1.30
2023-02-04T13:10:16.819Z,1.23
2023-02-04T13:12:43.942Z,1.30
2023-02-04T13:15:11.159Z,1.37
2023-02-04T13:17:38.308Z,1.10
2023-02-04T13:20:06.010Z,1.30
2023-02-04T13:22:33.017Z,1.30
2023-02-04T13:24:59.865Z,1.17
2023-02-04T13:27:27.810Z,1.33
2023-02-04T13:29:54.586Z,1.20
2023-02-04T13:32:21.316Z,1.17
2023-02-04T13:34:48.068Z,1.20
2023-02-04T13:37:14.760Z,1.20
2023-02-04T13:39:41.526Z,1.10
2023-02-04T13:42:08.239Z,1.20
2023-02-04T13:44:34.949Z,1.20
2023-02-04T13:47:01.681Z,1.10
2023-02-04T13:49:28.376Z,1.30
2023-02-04T13:51:55.072Z,1.20
2023-02-04T13:54:21.807Z,1.20
2023-02-04T13:56:48.527Z,1.30
2023-02-04T13:59:15.322Z,1.30
2023-02-04T14:01:42.150Z,1.20
2023-02-04T14:04:08.844Z,1.30
2023-02-04T14:06:38.162Z,1.50
2023-02-04T14:09:05.148Z,1.40
2023-02-04T14:11:31.869Z,1.40
2023-02-04T14:13:58.622Z,1.20
2023-02-04T14:16:25.453Z,1.10
2023-02-04T14:18:52.353Z,1.10
2023-02-04T14:21:19.328Z,1.30
2023-02-04T14:23:46.116Z,1.30
2023-02-04T14:26:12.863Z,1.20
2023-02-04T14:28:39.555Z,1.60
2023-02-04T14:31:06.357Z,1.23
2023-02-04T14:33:33.237Z,1.30
2023-02-04T14:36:00.501Z,1.17
2023-02-04T14:38:30.832Z,1.53
2023-02-04T14:41:00.760Z,1.47
2023-02-04T14:43:27.892Z,1.60
2023-02-04T14:45:54.786Z,1.70
2023-02-04T14:48:21.557Z,1.43
2023-02-04T14:50:48.360Z,1.70
2023-02-04T14:53:15.141Z,1.40
2023-02-04T14:55:41.867Z,1.73
2023-02-04T14:58:08.679Z,1.50
2023-02-04T15:00:35.656Z,1.50
2023-02-04T15:03:02.471Z,1.50
2023-02-04T15:05:29.281Z,1.50
2023-02-04T15:07:56.040Z,1.40
2023-02-04T15:10:24.462Z,1.57
2023-02-04T15:12:51.859Z,1.47
2023-02-04T15:15:18.789Z,1.40
2023-02-04T15:17:45.526Z,1.40
2023-02-04T15:20:12.556Z,1.50
2023-02-04T15:22:39.553Z,1.60
2023-02-04T15:25:06.622Z,1.30
2023-02-04T15:27:33.367Z,1.50
2023-02-04T15:30:00.131Z,1.40
2023-02-04T15:32:27.063Z,1.40
2023-02-04T15:34:53.808Z,1.40
2023-02-04T15:37:20.544Z,1.40
2023-02-04T15:39:47.249Z,1.33
2023-02-04T15:42:14.717Z,1.60
2023-02-04T15:44:41.467Z,1.30
2023-02-04T15:47:08.223Z,1.33
2023-02-04T15:49:35.112Z,1.30
2023-02-04T15:52:02.417Z,1.50
2023-02-04T15:54:29.524Z,1.40
2023-02-04T15:56:56.231Z,1.50
2023-02-04T15:59:23.229Z,1.40
2023-02-04T16:01:50.686Z,1.47
2023-02-04T16:04:19.781Z,1.53
2023-02-04T16:06:57.116Z,1.50
2023-02-04T16:09:26.172Z,1.50
2023-02-04T16:11:52.923Z,1.63
2023-02-04T16:14:19.629Z,1.47
2023-02-04T16:16:46.349Z,1.50
2023-02-04T16:19:13.091Z,1.60
2023-02-04T16:21:39.920Z,1.60
2023-02-04T16:24:08.124Z,1.50
2023-02-04T16:26:34.915Z,1.70
2023-02-04T16:29:01.632Z,1.80
2023-02-04T16:31:28.482Z,1.93
2023-02-04T16:33:55.253Z,1.80
2023-02-04T16:36:22.375Z,1.70
2023-02-04T16:38:49.155Z,2.00
2023-02-04T16:41:15.932Z,1.60
2023-02-04T16:43:42.685Z,1.80
2023-02-04T16:46:09.534Z,1.80
2023-02-04T16:48:36.401Z,2.40
2023-02-04T16:51:03.730Z,2.67
2023-02-04T16:53:30.492Z,3.40
2023-02-04T16:55:57.218Z,3.83
2023-02-04T16:58:23.993Z,3.50
2023-02-04T17:00:50.786Z,3.90
2023-02-04T17:03:17.664Z,4.03
2023-02-04T17:05:44.531Z,3.50
2023-02-04T17:08:13.477Z,3.00
2023-02-04T17:10:59.902Z,2.87
2023-02-04T17:13:26.905Z,2.97
2023-02-04T17:16:00.262Z,3.27
2023-02-04T17:18:29.979Z,3.03
2023-02-04T17:20:57.970Z,3.20
2023-02-04T17:23:26.691Z,3.00
2023-02-04T17:25:53.614Z,3.20
2023-02-04T17:28:20.454Z,2.40
2023-02-04T17:30:47.324Z,2.60
2023-02-04T17:33:14.042Z,2.27
2023-02-04T17:35:40.756Z,2.30
2023-02-04T17:38:07.510Z,2.30
2023-02-04T17:40:34.348Z,2.30
2023-02-04T17:43:01.107Z,2.10
2023-02-04T17:45:27.832Z,2.57
2023-02-04T17:47:54.543Z,3.30
2023-02-04T17:50:21.323Z,3.63
2023-02-04T17:52:48.252Z,3.70
2023-02-04T17:55:29.105Z,3.40
2023-02-04T17:58:00.502Z,3.43
2023-02-04T18:00:30.800Z,3.40
2023-02-04T18:02:57.822Z,4.23
2023-02-04T18:05:30.759Z,3.93
2023-02-04T18:08:27.564Z,4.00
2023-02-04T18:10:55.551Z,3.97
2023-02-04T18:13:31.860Z,4.40
2023-02-04T18:16:15.202Z,4.60
2023-02-04T18:18:42.137Z,4.23
2023-02-04T18:21:33.538Z,4.80
2023-02-04T18:24:09.401Z,5.73
2023-02-04T18:26:44.785Z,10.23
2023-02-04T18:29:30.204Z,10.70
2023-02-04T18:32:03.833Z,9.63
2023-02-04T18:34:40.469Z,8.80
2023-02-04T18:37:29.916Z,7.43
2023-02-04T18:40:08.589Z,7.10
2023-02-04T18:42:40.008Z,7.07
2023-02-04T18:45:29.977Z,7.00
2023-02-04T18:48:00.941Z,6.73
2023-02-04T18:50:35.078Z,6.10
2023-02-04T18:53:23.510Z,6.40
2023-02-04T18:55:57.846Z,6.87
2023-02-04T18:58:35.836Z,6.23
2023-02-04T19:01:07.917Z,7.00
2023-02-04T19:03:45.357Z,7.33
2023-02-04T19:06:38.417Z,9.23
2023-02-04T19:09:14.542Z,7.40
2023-02-04T19:11:51.828Z,7.07
2023-02-04T19:14:26.516Z,6.73
2023-02-04T19:16:59.531Z,6.70
2023-02-04T19:19:40.125Z,7.00
2023-02-04T19:22:46.503Z,6.70
2023-02-04T19:25:22.247Z,6.47
2023-02-04T19:27:56.907Z,6.03
2023-02-04T19:30:39.949Z,4.60
2023-02-04T19:33:42.739Z,4.50
2023-02-04T19:36:24.340Z,3.40
2023-02-04T19:39:00.814Z,3.60
2023-02-04T19:41:47.919Z,3.70
2023-02-04T19:44:15.054Z,3.50
2023-02-04T19:46:42.593Z,3.40
2023-02-04T19:49:29.791Z,4.13
2023-02-04T19:51:59.066Z,3.73
2023-02-04T19:54:37.785Z,3.70
2023-02-04T19:57:24.379Z,3.40
2023-02-04T19:59:55.965Z,3.10
2023-02-04T20:02:39.232Z,3.87
2023-02-04T20:05:20.354Z,4.97
2023-02-04T20:07:47.098Z,5.23
2023-02-04T20:10:26.794Z,6.33
2023-02-04T20:13:05.641Z,6.40
2023-02-04T20:15:32.803Z,6.57
2023-02-04T20:17:59.855Z,5.67
2023-02-04T20:20:31.376Z,6.87
2023-02-04T20:23:33.037Z,5.90
2023-02-04T20:26:01.444Z,5.00
2023-02-04T20:28:44.661Z,4.63
2023-02-04T20:31:24.586Z,4.57
2023-02-04T20:33:59.367Z,4.20
2023-02-04T20:36:26.155Z,4.60
2023-02-04T20:39:42.532Z,4.80
2023-02-04T20:42:19.299Z,4.60
2023-02-04T20:44:46.943Z,5.27
2023-02-04T20:47:25.708Z,4.60
2023-02-04T20:49:59.348Z,5.17
2023-02-04T20:52:41.246Z,6.07
2023-02-04T20:55:23.063Z,5.63
2023-02-04T20:57:52.590Z,5.67
2023-02-04T21:00:38.515Z,5.73
2023-02-04T21:03:24.764Z,6.23
2023-02-04T21:05:53.613Z,6.30
2023-02-04T21:08:47.832Z,8.10
2023-02-04T21:11:14.596Z,9.57
2023-02-04T21:13:41.386Z,8.27
2023-02-04T21:16:08.802Z,8.40
2023-02-04T21:18:35.922Z,8.90
2023-02-04T21:21:07.113Z,8.60
2023-02-04T21:23:35.937Z,8.77
2023-02-04T21:26:02.899Z,9.10
2023-02-04T21:28:30.428Z,8.73
2023-02-04T21:30:57.352Z,9.07
2023-02-04T21:33:24.246Z,9.53
2023-02-04T21:35:51.091Z,8.33
2023-02-04T21:38:17.842Z,7.43
2023-02-04T21:40:44.610Z,7.23
2023-02-04T21:43:11.462Z,7.67
2023-02-04T21:45:39.566Z,7.50
2023-02-04T21:48:07.785Z,7.13
2023-02-04T21:50:36.354Z,7.67
2023-02-04T21:53:03.114Z,7.10
2023-02-04T21:55:30.041Z,7.63
2023-02-04T21:57:56.794Z,5.83
2023-02-04T22:00:23.969Z,6.37
2023-02-04T22:02:52.662Z,6.50
2023-02-04T22:05:21.452Z,7.37
2023-02-04T22:07:48.866Z,7.30
2023-02-04T22:10:22.865Z,7.50
2023-02-04T22:12:49.944Z,7.83
2023-02-04T22:15:24.211Z,8.83
2023-02-04T22:17:53.300Z,11.13
2023-02-04T22:20:22.443Z,12.13
2023-02-04T22:22:49.972Z,12.37
2023-02-04T22:25:19.885Z,13.80
2023-02-04T22:27:46.717Z,11.63
2023-02-04T22:30:15.618Z,9.97
2023-02-04T22:32:42.374Z,7.80
2023-02-04T22:35:10.732Z,6.73
2023-02-04T22:37:39.574Z,6.80
2023-02-04T22:40:10.058Z,7.03
2023-02-04T22:42:37.195Z,5.97
2023-02-04T22:45:04.938Z,6.60
2023-02-04T22:47:32.184Z,6.27
2023-02-04T22:49:58.931Z,6.40
2023-02-04T22:52:25.924Z,5.33
2023-02-04T22:54:52.825Z,5.40
2023-02-04T22:57:19.548Z,6.10
2023-02-04T22:59:46.255Z,7.67
2023-02-04T23:02:13.111Z,7.53
2023-02-04T23:04:39.884Z,7.00
2023-02-04T23:07:08.295Z,7.93
2023-02-04T23:09:35.531Z,7.60
2023-02-04T23:12:12.521Z,7.27
2023-02-04T23:14:45.890Z,7.60
2023-02-04T23:17:14.466Z,7.37
2023-02-04T23:19:41.313Z,7.83
2023-02-04T23:22:10.361Z,8.00
2023-02-04T23:24:37.819Z,7.07
2023-02-04T23:27:05.569Z,8.43
2023-02-04T23:29:35.111Z,7.33
2023-02-04T23:32:03.345Z,7.67
2023-02-04T23:34:31.291Z,7.53
2023-02-04T23:36:58.114Z,6.87
2023-02-04T23:39:25.162Z,6.23
2023-02-04T23:41:52.244Z,6.50
2023-02-04T23:44:19.106Z,6.17
2023-02-04T23:46:46.101Z,7.10
2023-02-04T23:49:12.915Z,6.87
2023-02-04T23:51:39.969Z,6.57
2023-02-04T23:54:07.235Z,7.33
2023-02-04T23:56:34.208Z,6.73
2023-02-04T23:59:01.320Z,6.20
